Terminal Aerodrome Forecast
Issued by NWS

Home | Current Version | Previous Version | Text Only | Print | Product List | Glossary On
Versions: 1 2 3 4 5 6 7 8 9 10 11 12 13 14 15
000
FTUS43 KJKL 010520
TAFSME
TAF
KSME 010520Z 0106/0206 27006KT P6SM FEW020 SCT035
     FM011400 26010G17KT P6SM SCT040
     FM020100 25003KT P6SM SCT200=

USA.gov is the U.S. government's official web portal to all federal, state and local government web resources and services.